sensor_id;sensor_type;location;lat;lon;timestamp;P1;durP1;ratioP1;P2;durP2;ratioP2
42964;SDS011;28604;51.204;22.552;2023-02-23T00:00:16;18.88;;;10.60;;
42964;SDS011;28604;51.204;22.552;2023-02-23T00:03:11;19.92;;;11.25;;
42964;SDS011;28604;51.204;22.552;2023-02-23T00:05:38;24.27;;;11.68;;
42964;SDS011;28604;51.204;22.552;2023-02-23T00:08:04;21.45;;;11.55;;
42964;SDS011;28604;51.204;22.552;2023-02-23T00:10:30;21.67;;;11.77;;
42964;SDS011;28604;51.204;22.552;2023-02-23T00:12:58;27.17;;;12.93;;
42964;SDS011;28604;51.204;22.552;2023-02-23T00:15:25;31.27;;;14.30;;
42964;SDS011;28604;51.204;22.552;2023-02-23T00:17:52;22.80;;;12.35;;
42964;SDS011;28604;51.204;22.552;2023-02-23T00:20:20;24.98;;;13.88;;
42964;SDS011;28604;51.204;22.552;2023-02-23T00:22:54;24.58;;;12.30;;
42964;SDS011;28604;51.204;22.552;2023-02-23T00:25:21;24.17;;;11.95;;
42964;SDS011;28604;51.204;22.552;2023-02-23T00:27:48;25.60;;;12.63;;
42964;SDS011;28604;51.204;22.552;2023-02-23T00:30:16;24.42;;;12.30;;
42964;SDS011;28604;51.204;22.552;2023-02-23T00:32:46;19.33;;;10.63;;
42964;SDS011;28604;51.204;22.552;2023-02-23T00:35:16;23.15;;;11.68;;
42964;SDS011;28604;51.204;22.552;2023-02-23T00:37:44;20.02;;;10.50;;
42964;SDS011;28604;51.204;22.552;2023-02-23T00:40:13;14.73;;;8.30;;
42964;SDS011;28604;51.204;22.552;2023-02-23T00:42:44;18.77;;;8.18;;
42964;SDS011;28604;51.204;22.552;2023-02-23T00:45:11;15.35;;;8.25;;
42964;SDS011;28604;51.204;22.552;2023-02-23T00:47:39;12.73;;;6.35;;
42964;SDS011;28604;51.204;22.552;2023-02-23T00:50:10;10.73;;;6.18;;
42964;SDS011;28604;51.204;22.552;2023-02-23T00:52:39;9.07;;;5.35;;
42964;SDS011;28604;51.204;22.552;2023-02-23T00:55:07;5.60;;;3.88;;
42964;SDS011;28604;51.204;22.552;2023-02-23T00:57:34;6.50;;;4.35;;
42964;SDS011;28604;51.204;22.552;2023-02-23T01:00:00;8.15;;;5.30;;
42964;SDS011;28604;51.204;22.552;2023-02-23T01:02:37;4.80;;;3.35;;
42964;SDS011;28604;51.204;22.552;2023-02-23T01:05:03;6.32;;;3.72;;
42964;SDS011;28604;51.204;22.552;2023-02-23T01:07:30;8.80;;;4.20;;
42964;SDS011;28604;51.204;22.552;2023-02-23T01:09:55;9.25;;;4.57;;
42964;SDS011;28604;51.204;22.552;2023-02-23T01:12:22;8.07;;;3.95;;
42964;SDS011;28604;51.204;22.552;2023-02-23T01:14:48;7.55;;;3.80;;
42964;SDS011;28604;51.204;22.552;2023-02-23T01:17:15;7.82;;;4.30;;
42964;SDS011;28604;51.204;22.552;2023-02-23T01:19:42;9.27;;;4.13;;
42964;SDS011;28604;51.204;22.552;2023-02-23T01:22:08;6.32;;;3.88;;
42964;SDS011;28604;51.204;22.552;2023-02-23T01:24:34;10.68;;;5.10;;
42964;SDS011;28604;51.204;22.552;2023-02-23T01:27:03;9.20;;;5.07;;
42964;SDS011;28604;51.204;22.552;2023-02-23T01:29:29;7.25;;;4.88;;
42964;SDS011;28604;51.204;22.552;2023-02-23T01:31:55;8.45;;;4.15;;
42964;SDS011;28604;51.204;22.552;2023-02-23T01:34:23;6.35;;;4.18;;
42964;SDS011;28604;51.204;22.552;2023-02-23T01:36:49;8.68;;;5.00;;
42964;SDS011;28604;51.204;22.552;2023-02-23T01:39:16;10.63;;;4.68;;
42964;SDS011;28604;51.204;22.552;2023-02-23T01:41:44;7.45;;;5.32;;
42964;SDS011;28604;51.204;22.552;2023-02-23T01:46:40;8.13;;;4.20;;
42964;SDS011;28604;51.204;22.552;2023-02-23T01:49:10;5.45;;;3.97;;
42964;SDS011;28604;51.204;22.552;2023-02-23T01:51:45;7.68;;;4.63;;
42964;SDS011;28604;51.204;22.552;2023-02-23T01:54:29;8.90;;;4.65;;
42964;SDS011;28604;51.204;22.552;2023-02-23T01:56:59;6.32;;;4.22;;
42964;SDS011;28604;51.204;22.552;2023-02-23T01:59:31;9.48;;;4.15;;
42964;SDS011;28604;51.204;22.552;2023-02-23T02:02:03;6.85;;;3.83;;
42964;SDS011;28604;51.204;22.552;2023-02-23T02:04:35;12.80;;;5.20;;
42964;SDS011;28604;51.204;22.552;2023-02-23T02:07:17;5.28;;;4.28;;
42964;SDS011;28604;51.204;22.552;2023-02-23T02:09:48;9.52;;;4.30;;
42964;SDS011;28604;51.204;22.552;2023-02-23T02:12:53;6.22;;;3.92;;
42964;SDS011;28604;51.204;22.552;2023-02-23T02:15:21;8.27;;;4.47;;
42964;SDS011;28604;51.204;22.552;2023-02-23T02:18:07;4.55;;;3.42;;
42964;SDS011;28604;51.204;22.552;2023-02-23T02:21:01;6.88;;;3.85;;
42964;SDS011;28604;51.204;22.552;2023-02-23T02:26:55;6.18;;;3.95;;
42964;SDS011;28604;51.204;22.552;2023-02-23T02:30:01;6.72;;;4.20;;
42964;SDS011;28604;51.204;22.552;2023-02-23T02:35:38;7.70;;;4.13;;
42964;SDS011;28604;51.204;22.552;2023-02-23T02:38:32;7.25;;;3.78;;
42964;SDS011;28604;51.204;22.552;2023-02-23T02:41:09;7.20;;;3.92;;
42964;SDS011;28604;51.204;22.552;2023-02-23T02:46:52;8.00;;;3.72;;
42964;SDS011;28604;51.204;22.552;2023-02-23T02:49:31;8.65;;;3.90;;
42964;SDS011;28604;51.204;22.552;2023-02-23T02:52:11;7.57;;;4.10;;
42964;SDS011;28604;51.204;22.552;2023-02-23T02:54:45;9.02;;;4.50;;
42964;SDS011;28604;51.204;22.552;2023-02-23T02:57:25;6.05;;;4.18;;
42964;SDS011;28604;51.204;22.552;2023-02-23T02:59:53;6.07;;;4.03;;
42964;SDS011;28604;51.204;22.552;2023-02-23T03:02:38;8.43;;;4.47;;
42964;SDS011;28604;51.204;22.552;2023-02-23T03:05:57;9.75;;;4.43;;
42964;SDS011;28604;51.204;22.552;2023-02-23T03:11:24;5.72;;;4.10;;
42964;SDS011;28604;51.204;22.552;2023-02-23T03:14:32;5.67;;;3.97;;
42964;SDS011;28604;51.204;22.552;2023-02-23T03:17:44;9.45;;;4.00;;
42964;SDS011;28604;51.204;22.552;2023-02-23T03:23:23;8.65;;;4.60;;
42964;SDS011;28604;51.204;22.552;2023-02-23T03:26:13;8.13;;;3.95;;
42964;SDS011;28604;51.204;22.552;2023-02-23T03:30:00;7.65;;;4.00;;
42964;SDS011;28604;51.204;22.552;2023-02-23T03:35:27;10.35;;;4.75;;
42964;SDS011;28604;51.204;22.552;2023-02-23T03:38:28;6.43;;;4.03;;
42964;SDS011;28604;51.204;22.552;2023-02-23T03:41:23;9.95;;;4.50;;
42964;SDS011;28604;51.204;22.552;2023-02-23T03:44:17;9.77;;;6.57;;
42964;SDS011;28604;51.204;22.552;2023-02-23T03:47:07;6.93;;;4.65;;
42964;SDS011;28604;51.204;22.552;2023-02-23T03:49:53;7.60;;;5.00;;
42964;SDS011;28604;51.204;22.552;2023-02-23T03:52:45;11.52;;;6.00;;
42964;SDS011;28604;51.204;22.552;2023-02-23T03:55:36;7.95;;;4.38;;
42964;SDS011;28604;51.204;22.552;2023-02-23T03:58:25;8.30;;;4.07;;
42964;SDS011;28604;51.204;22.552;2023-02-23T04:01:13;7.53;;;3.83;;
42964;SDS011;28604;51.204;22.552;2023-02-23T04:04:01;6.03;;;4.20;;
42964;SDS011;28604;51.204;22.552;2023-02-23T04:06:47;7.80;;;4.93;;
42964;SDS011;28604;51.204;22.552;2023-02-23T04:09:33;7.25;;;4.47;;
42964;SDS011;28604;51.204;22.552;2023-02-23T04:12:24;8.82;;;4.90;;
42964;SDS011;28604;51.204;22.552;2023-02-23T04:15:30;10.27;;;4.18;;
42964;SDS011;28604;51.204;22.552;2023-02-23T04:17:59;14.73;;;4.65;;
42964;SDS011;28604;51.204;22.552;2023-02-23T04:20:27;7.53;;;4.65;;
42964;SDS011;28604;51.204;22.552;2023-02-23T04:22:54;12.13;;;5.70;;
42964;SDS011;28604;51.204;22.552;2023-02-23T04:25:19;7.20;;;4.68;;
42964;SDS011;28604;51.204;22.552;2023-02-23T04:27:49;7.05;;;4.78;;
42964;SDS011;28604;51.204;22.552;2023-02-23T04:30:15;7.55;;;4.75;;
42964;SDS011;28604;51.204;22.552;2023-02-23T04:32:42;10.40;;;5.05;;
42964;SDS011;28604;51.204;22.552;2023-02-23T04:35:10;10.02;;;5.30;;
42964;SDS011;28604;51.204;22.552;2023-02-23T04:37:38;9.73;;;4.65;;
42964;SDS011;28604;51.204;22.552;2023-02-23T04:40:04;8.65;;;5.50;;
42964;SDS011;28604;51.204;22.552;2023-02-23T04:42:31;11.77;;;5.70;;
42964;SDS011;28604;51.204;22.552;2023-02-23T04:44:57;7.60;;;4.63;;
42964;SDS011;28604;51.204;22.552;2023-02-23T04:47:23;9.35;;;4.95;;
42964;SDS011;28604;51.204;22.552;2023-02-23T04:49:49;10.43;;;4.70;;
42964;SDS011;28604;51.204;22.552;2023-02-23T04:52:15;9.07;;;5.28;;
42964;SDS011;28604;51.204;22.552;2023-02-23T04:54:41;5.97;;;3.95;;
42964;SDS011;28604;51.204;22.552;2023-02-23T04:57:08;11.73;;;5.07;;
42964;SDS011;28604;51.204;22.552;2023-02-23T04:59:34;9.25;;;4.85;;
42964;SDS011;28604;51.204;22.552;2023-02-23T05:02:01;7.65;;;4.53;;
42964;SDS011;28604;51.204;22.552;2023-02-23T05:04:27;5.88;;;4.50;;
42964;SDS011;28604;51.204;22.552;2023-02-23T05:06:53;10.95;;;5.00;;
42964;SDS011;28604;51.204;22.552;2023-02-23T05:09:19;8.90;;;4.07;;
42964;SDS011;28604;51.204;22.552;2023-02-23T05:11:45;5.85;;;3.60;;
42964;SDS011;28604;51.204;22.552;2023-02-23T05:14:11;8.77;;;3.53;;
42964;SDS011;28604;51.204;22.552;2023-02-23T05:16:37;5.70;;;3.60;;
42964;SDS011;28604;51.204;22.552;2023-02-23T05:19:04;4.65;;;3.40;;
42964;SDS011;28604;51.204;22.552;2023-02-23T05:21:30;6.47;;;3.65;;
42964;SDS011;28604;51.204;22.552;2023-02-23T05:23:56;7.80;;;3.67;;
42964;SDS011;28604;51.204;22.552;2023-02-23T05:26:22;11.43;;;4.03;;
42964;SDS011;28604;51.204;22.552;2023-02-23T05:28:48;6.05;;;3.75;;
42964;SDS011;28604;51.204;22.552;2023-02-23T05:31:14;5.18;;;3.10;;
42964;SDS011;28604;51.204;22.552;2023-02-23T05:33:40;5.65;;;3.42;;
42964;SDS011;28604;51.204;22.552;2023-02-23T05:36:10;9.07;;;3.95;;
42964;SDS011;28604;51.204;22.552;2023-02-23T05:38:38;7.20;;;3.10;;
42964;SDS011;28604;51.204;22.552;2023-02-23T05:41:06;8.88;;;3.45;;
42964;SDS011;28604;51.204;22.552;2023-02-23T05:43:36;5.90;;;3.35;;
42964;SDS011;28604;51.204;22.552;2023-02-23T05:46:09;5.93;;;3.03;;
42964;SDS011;28604;51.204;22.552;2023-02-23T05:48:37;4.10;;;3.00;;
42964;SDS011;28604;51.204;22.552;2023-02-23T05:51:03;5.03;;;3.20;;
42964;SDS011;28604;51.204;22.552;2023-02-23T05:53:32;4.25;;;2.65;;
42964;SDS011;28604;51.204;22.552;2023-02-23T05:56:00;6.35;;;3.13;;
42964;SDS011;28604;51.204;22.552;2023-02-23T05:58:26;7.57;;;2.85;;
42964;SDS011;28604;51.204;22.552;2023-02-23T06:00:53;3.45;;;2.63;;
42964;SDS011;28604;51.204;22.552;2023-02-23T06:03:19;3.70;;;2.58;;
42964;SDS011;28604;51.204;22.552;2023-02-23T06:05:49;4.78;;;3.38;;
42964;SDS011;28604;51.204;22.552;2023-02-23T06:08:16;5.82;;;2.78;;
42964;SDS011;28604;51.204;22.552;2023-02-23T06:10:42;4.03;;;2.83;;
42964;SDS011;28604;51.204;22.552;2023-02-23T06:13:08;4.20;;;2.95;;
42964;SDS011;28604;51.204;22.552;2023-02-23T06:15:34;5.38;;;3.65;;
42964;SDS011;28604;51.204;22.552;2023-02-23T06:18:02;6.40;;;3.25;;
42964;SDS011;28604;51.204;22.552;2023-02-23T06:20:28;3.92;;;3.00;;
42964;SDS011;28604;51.204;22.552;2023-02-23T06:22:54;5.97;;;3.08;;
42964;SDS011;28604;51.204;22.552;2023-02-23T06:25:21;4.45;;;2.40;;
42964;SDS011;28604;51.204;22.552;2023-02-23T06:27:47;5.25;;;3.13;;
42964;SDS011;28604;51.204;22.552;2023-02-23T06:30:13;4.43;;;2.58;;
42964;SDS011;28604;51.204;22.552;2023-02-23T06:32:40;3.40;;;2.70;;
42964;SDS011;28604;51.204;22.552;2023-02-23T06:35:10;4.93;;;3.10;;
42964;SDS011;28604;51.204;22.552;2023-02-23T06:37:37;5.55;;;2.97;;
42964;SDS011;28604;51.204;22.552;2023-02-23T06:40:04;4.40;;;3.08;;
42964;SDS011;28604;51.204;22.552;2023-02-23T06:42:30;7.07;;;3.42;;
42964;SDS011;28604;51.204;22.552;2023-02-23T06:44:56;6.05;;;3.25;;
42964;SDS011;28604;51.204;22.552;2023-02-23T06:47:22;4.78;;;3.25;;
42964;SDS011;28604;51.204;22.552;2023-02-23T06:49:48;6.38;;;3.40;;
42964;SDS011;28604;51.204;22.552;2023-02-23T06:52:14;5.10;;;2.75;;
42964;SDS011;28604;51.204;22.552;2023-02-23T06:54:40;5.25;;;2.97;;
42964;SDS011;28604;51.204;22.552;2023-02-23T06:57:07;4.78;;;3.15;;
42964;SDS011;28604;51.204;22.552;2023-02-23T06:59:33;7.15;;;3.97;;
42964;SDS011;28604;51.204;22.552;2023-02-23T07:02:00;7.60;;;4.00;;
42964;SDS011;28604;51.204;22.552;2023-02-23T07:04:29;5.78;;;3.50;;
42964;SDS011;28604;51.204;22.552;2023-02-23T07:06:55;5.97;;;3.38;;
42964;SDS011;28604;51.204;22.552;2023-02-23T07:09:21;5.45;;;3.22;;
42964;SDS011;28604;51.204;22.552;2023-02-23T07:11:47;6.40;;;3.85;;
42964;SDS011;28604;51.204;22.552;2023-02-23T07:14:13;7.13;;;4.07;;
42964;SDS011;28604;51.204;22.552;2023-02-23T07:16:39;7.32;;;3.33;;
42964;SDS011;28604;51.204;22.552;2023-02-23T07:19:05;7.95;;;4.03;;
42964;SDS011;28604;51.204;22.552;2023-02-23T07:21:32;9.45;;;3.85;;
42964;SDS011;28604;51.204;22.552;2023-02-23T07:23:59;9.10;;;3.03;;
42964;SDS011;28604;51.204;22.552;2023-02-23T07:26:25;7.75;;;3.90;;
42964;SDS011;28604;51.204;22.552;2023-02-23T07:28:52;12.50;;;4.43;;
42964;SDS011;28604;51.204;22.552;2023-02-23T07:31:17;10.63;;;3.33;;
42964;SDS011;28604;51.204;22.552;2023-02-23T07:33:44;5.32;;;3.30;;
42964;SDS011;28604;51.204;22.552;2023-02-23T07:36:10;5.88;;;3.17;;
42964;SDS011;28604;51.204;22.552;2023-02-23T07:38:37;5.10;;;3.15;;
42964;SDS011;28604;51.204;22.552;2023-02-23T07:41:03;10.15;;;3.10;;
42964;SDS011;28604;51.204;22.552;2023-02-23T07:43:29;7.25;;;3.60;;
42964;SDS011;28604;51.204;22.552;2023-02-23T07:45:59;4.80;;;3.72;;
42964;SDS011;28604;51.204;22.552;2023-02-23T07:48:27;10.13;;;4.47;;
42964;SDS011;28604;51.204;22.552;2023-02-23T07:50:53;8.18;;;3.78;;
42964;SDS011;28604;51.204;22.552;2023-02-23T07:53:19;5.70;;;3.15;;
42964;SDS011;28604;51.204;22.552;2023-02-23T07:55:45;6.18;;;3.22;;
42964;SDS011;28604;51.204;22.552;2023-02-23T07:58:19;4.97;;;3.30;;
42964;SDS011;28604;51.204;22.552;2023-02-23T08:00:45;7.78;;;4.07;;
42964;SDS011;28604;51.204;22.552;2023-02-23T08:03:11;5.40;;;3.28;;
42964;SDS011;28604;51.204;22.552;2023-02-23T08:05:37;5.95;;;3.42;;
42964;SDS011;28604;51.204;22.552;2023-02-23T08:08:05;5.35;;;3.58;;
42964;SDS011;28604;51.204;22.552;2023-02-23T08:10:31;5.53;;;3.60;;
42964;SDS011;28604;51.204;22.552;2023-02-23T08:12:57;9.27;;;3.95;;
42964;SDS011;28604;51.204;22.552;2023-02-23T08:15:24;5.63;;;3.03;;
42964;SDS011;28604;51.204;22.552;2023-02-23T08:17:50;5.68;;;2.70;;
42964;SDS011;28604;51.204;22.552;2023-02-23T08:20:16;5.45;;;3.53;;
42964;SDS011;28604;51.204;22.552;2023-02-23T08:22:43;4.18;;;3.60;;
42964;SDS011;28604;51.204;22.552;2023-02-23T08:25:08;6.25;;;3.58;;
42964;SDS011;28604;51.204;22.552;2023-02-23T08:27:35;7.25;;;3.58;;
42964;SDS011;28604;51.204;22.552;2023-02-23T08:30:02;4.47;;;3.30;;
42964;SDS011;28604;51.204;22.552;2023-02-23T08:32:33;4.47;;;3.42;;
42964;SDS011;28604;51.204;22.552;2023-02-23T08:35:00;6.43;;;3.40;;
42964;SDS011;28604;51.204;22.552;2023-02-23T08:37:29;5.25;;;3.78;;
42964;SDS011;28604;51.204;22.552;2023-02-23T08:39:55;6.13;;;3.40;;
42964;SDS011;28604;51.204;22.552;2023-02-23T08:42:22;7.40;;;2.95;;
42964;SDS011;28604;51.204;22.552;2023-02-23T08:44:48;7.80;;;3.05;;
42964;SDS011;28604;51.204;22.552;2023-02-23T08:47:14;5.18;;;3.33;;
42964;SDS011;28604;51.204;22.552;2023-02-23T08:49:50;5.47;;;2.63;;
42964;SDS011;28604;51.204;22.552;2023-02-23T08:52:19;8.10;;;3.40;;
42964;SDS011;28604;51.204;22.552;2023-02-23T08:54:45;5.38;;;2.58;;
42964;SDS011;28604;51.204;22.552;2023-02-23T08:57:11;4.60;;;3.20;;
42964;SDS011;28604;51.204;22.552;2023-02-23T08:59:37;2.95;;;2.40;;
42964;SDS011;28604;51.204;22.552;2023-02-23T09:02:04;9.90;;;2.85;;
42964;SDS011;28604;51.204;22.552;2023-02-23T09:04:33;4.57;;;2.80;;
42964;SDS011;28604;51.204;22.552;2023-02-23T09:07:00;4.32;;;3.13;;
42964;SDS011;28604;51.204;22.552;2023-02-23T09:09:26;4.35;;;3.33;;
42964;SDS011;28604;51.204;22.552;2023-02-23T09:11:52;6.55;;;2.90;;
42964;SDS011;28604;51.204;22.552;2023-02-23T09:14:18;6.47;;;2.85;;
42964;SDS011;28604;51.204;22.552;2023-02-23T09:16:45;4.88;;;3.13;;
42964;SDS011;28604;51.204;22.552;2023-02-23T09:19:11;3.40;;;2.63;;
42964;SDS011;28604;51.204;22.552;2023-02-23T09:21:38;3.97;;;2.50;;
42964;SDS011;28604;51.204;22.552;2023-02-23T09:24:04;3.67;;;2.83;;
42964;SDS011;28604;51.204;22.552;2023-02-23T09:26:31;5.57;;;3.25;;
42964;SDS011;28604;51.204;22.552;2023-02-23T09:28:58;4.72;;;3.72;;
42964;SDS011;28604;51.204;22.552;2023-02-23T09:31:25;3.83;;;2.67;;
42964;SDS011;28604;51.204;22.552;2023-02-23T09:33:51;3.55;;;3.25;;
42964;SDS011;28604;51.204;22.552;2023-02-23T09:36:22;3.90;;;2.47;;
42964;SDS011;28604;51.204;22.552;2023-02-23T09:38:50;4.50;;;2.83;;
42964;SDS011;28604;51.204;22.552;2023-02-23T09:46:31;2.97;;;2.67;;
42964;SDS011;28604;51.204;22.552;2023-02-23T09:49:03;3.13;;;2.50;;
42964;SDS011;28604;51.204;22.552;2023-02-23T09:54:03;3.40;;;3.10;;
42964;SDS011;28604;51.204;22.552;2023-02-23T09:56:35;5.88;;;3.40;;
42964;SDS011;28604;51.204;22.552;2023-02-23T09:59:04;4.40;;;2.85;;
42964;SDS011;28604;51.204;22.552;2023-02-23T10:07:04;6.13;;;3.42;;
42964;SDS011;28604;51.204;22.552;2023-02-23T10:09:42;3.70;;;2.90;;
42964;SDS011;28604;51.204;22.552;2023-02-23T10:20:59;4.28;;;3.40;;
42964;SDS011;28604;51.204;22.552;2023-02-23T10:23:35;4.93;;;4.20;;
42964;SDS011;28604;51.204;22.552;2023-02-23T10:26:03;5.07;;;3.53;;
42964;SDS011;28604;51.204;22.552;2023-02-23T10:28:34;9.95;;;3.35;;
42964;SDS011;28604;51.204;22.552;2023-02-23T10:31:01;8.48;;;3.95;;
42964;SDS011;28604;51.204;22.552;2023-02-23T10:33:40;4.55;;;3.60;;
42964;SDS011;28604;51.204;22.552;2023-02-23T10:36:14;11.65;;;3.05;;
42964;SDS011;28604;51.204;22.552;2023-02-23T10:38:45;5.63;;;3.85;;
42964;SDS011;28604;51.204;22.552;2023-02-23T10:41:11;4.22;;;2.72;;
42964;SDS011;28604;51.204;22.552;2023-02-23T10:43:38;6.90;;;4.13;;
42964;SDS011;28604;51.204;22.552;2023-02-23T10:46:04;6.28;;;3.30;;
42964;SDS011;28604;51.204;22.552;2023-02-23T10:48:35;3.75;;;3.00;;
42964;SDS011;28604;51.204;22.552;2023-02-23T10:51:15;6.80;;;3.65;;
42964;SDS011;28604;51.204;22.552;2023-02-23T10:53:46;9.15;;;3.95;;
42964;SDS011;28604;51.204;22.552;2023-02-23T10:56:12;9.23;;;3.83;;
42964;SDS011;28604;51.204;22.552;2023-02-23T10:58:45;5.90;;;3.70;;
42964;SDS011;28604;51.204;22.552;2023-02-23T11:01:33;5.18;;;3.40;;
42964;SDS011;28604;51.204;22.552;2023-02-23T11:04:29;3.35;;;3.05;;
42964;SDS011;28604;51.204;22.552;2023-02-23T11:07:20;4.60;;;3.70;;
42964;SDS011;28604;51.204;22.552;2023-02-23T11:09:46;6.05;;;3.63;;
42964;SDS011;28604;51.204;22.552;2023-02-23T11:12:15;5.15;;;3.78;;
42964;SDS011;28604;51.204;22.552;2023-02-23T11:14:46;5.63;;;4.13;;
42964;SDS011;28604;51.204;22.552;2023-02-23T11:17:33;6.57;;;3.60;;
42964;SDS011;28604;51.204;22.552;2023-02-23T11:23:45;6.32;;;3.85;;
42964;SDS011;28604;51.204;22.552;2023-02-23T11:25:50;11.85;;;4.60;;
42964;SDS011;28604;51.204;22.552;2023-02-23T11:30:59;7.28;;;3.72;;
42964;SDS011;28604;51.204;22.552;2023-02-23T11:33:31;5.82;;;4.53;;
42964;SDS011;28604;51.204;22.552;2023-02-23T11:36:24;4.28;;;3.30;;
42964;SDS011;28604;51.204;22.552;2023-02-23T11:39:03;6.78;;;5.18;;
42964;SDS011;28604;51.204;22.552;2023-02-23T11:41:40;7.10;;;4.88;;
42964;SDS011;28604;51.204;22.552;2023-02-23T11:44:08;7.15;;;4.75;;
42964;SDS011;28604;51.204;22.552;2023-02-23T11:46:44;7.03;;;4.38;;
42964;SDS011;28604;51.204;22.552;2023-02-23T11:49:16;9.93;;;4.45;;
42964;SDS011;28604;51.204;22.552;2023-02-23T11:51:49;8.25;;;4.78;;
42964;SDS011;28604;51.204;22.552;2023-02-23T11:54:26;6.80;;;4.68;;
42964;SDS011;28604;51.204;22.552;2023-02-23T11:57:00;7.78;;;4.72;;
42964;SDS011;28604;51.204;22.552;2023-02-23T11:59:27;4.88;;;4.05;;
42964;SDS011;28604;51.204;22.552;2023-02-23T12:02:03;8.10;;;4.78;;
42964;SDS011;28604;51.204;22.552;2023-02-23T12:04:43;5.53;;;3.90;;
42964;SDS011;28604;51.204;22.552;2023-02-23T12:12:34;6.30;;;5.00;;
42964;SDS011;28604;51.204;22.552;2023-02-23T12:15:13;5.93;;;4.68;;
42964;SDS011;28604;51.204;22.552;2023-02-23T12:17:48;10.27;;;4.28;;
42964;SDS011;28604;51.204;22.552;2023-02-23T12:20:21;7.18;;;4.40;;
42964;SDS011;28604;51.204;22.552;2023-02-23T12:22:53;12.70;;;4.45;;
42964;SDS011;28604;51.204;22.552;2023-02-23T12:25:45;8.63;;;4.85;;
42964;SDS011;28604;51.204;22.552;2023-02-23T12:28:19;9.57;;;4.75;;
42964;SDS011;28604;51.204;22.552;2023-02-23T12:34:00;9.38;;;4.88;;
42964;SDS011;28604;51.204;22.552;2023-02-23T12:36:36;5.40;;;4.82;;
42964;SDS011;28604;51.204;22.552;2023-02-23T12:42:17;11.40;;;5.22;;
42964;SDS011;28604;51.204;22.552;2023-02-23T12:44:57;14.32;;;5.85;;
42964;SDS011;28604;51.204;22.552;2023-02-23T12:47:39;11.68;;;5.45;;
42964;SDS011;28604;51.204;22.552;2023-02-23T12:50:30;6.50;;;4.68;;
42964;SDS011;28604;51.204;22.552;2023-02-23T12:58:36;9.52;;;5.43;;
42964;SDS011;28604;51.204;22.552;2023-02-23T13:01:33;10.35;;;5.63;;
42964;SDS011;28604;51.204;22.552;2023-02-23T13:07:18;9.18;;;5.05;;
42964;SDS011;28604;51.204;22.552;2023-02-23T13:13:03;10.02;;;5.18;;
42964;SDS011;28604;51.204;22.552;2023-02-23T13:15:54;7.95;;;5.38;;
42964;SDS011;28604;51.204;22.552;2023-02-23T13:18:36;9.63;;;5.63;;
42964;SDS011;28604;51.204;22.552;2023-02-23T13:21:21;6.40;;;4.80;;
42964;SDS011;28604;51.204;22.552;2023-02-23T13:24:00;11.13;;;4.80;;
42964;SDS011;28604;51.204;22.552;2023-02-23T13:32:18;12.32;;;5.18;;
42964;SDS011;28604;51.204;22.552;2023-02-23T13:35:02;10.95;;;5.43;;
42964;SDS011;28604;51.204;22.552;2023-02-23T13:37:44;11.63;;;6.15;;
42964;SDS011;28604;51.204;22.552;2023-02-23T13:40:23;16.38;;;5.20;;
42964;SDS011;28604;51.204;22.552;2023-02-23T13:43:05;11.65;;;5.25;;
42964;SDS011;28604;51.204;22.552;2023-02-23T13:45:54;7.32;;;5.47;;
42964;SDS011;28604;51.204;22.552;2023-02-23T13:56:42;9.20;;;5.90;;
42964;SDS011;28604;51.204;22.552;2023-02-23T13:59:17;11.85;;;5.22;;
42964;SDS011;28604;51.204;22.552;2023-02-23T14:01:46;11.52;;;5.88;;
42964;SDS011;28604;51.204;22.552;2023-02-23T14:04:25;15.02;;;6.50;;
42964;SDS011;28604;51.204;22.552;2023-02-23T14:09:34;9.20;;;5.53;;
42964;SDS011;28604;51.204;22.552;2023-02-23T14:12:25;6.25;;;5.18;;
42964;SDS011;28604;51.204;22.552;2023-02-23T14:14:57;7.05;;;5.13;;
42964;SDS011;28604;51.204;22.552;2023-02-23T14:20:54;6.22;;;4.60;;
42964;SDS011;28604;51.204;22.552;2023-02-23T14:28:39;10.43;;;5.45;;
42964;SDS011;28604;51.204;22.552;2023-02-23T14:38:57;8.18;;;6.32;;
42964;SDS011;28604;51.204;22.552;2023-02-23T14:44:06;9.45;;;6.80;;
42964;SDS011;28604;51.204;22.552;2023-02-23T14:46:46;9.95;;;6.22;;
42964;SDS011;28604;51.204;22.552;2023-02-23T14:49:24;10.20;;;6.45;;
42964;SDS011;28604;51.204;22.552;2023-02-23T14:51:52;8.27;;;6.15;;
42964;SDS011;28604;51.204;22.552;2023-02-23T14:54:26;8.88;;;6.43;;
42964;SDS011;28604;51.204;22.552;2023-02-23T14:57:01;8.57;;;6.10;;
42964;SDS011;28604;51.204;22.552;2023-02-23T14:59:40;12.25;;;6.45;;
42964;SDS011;28604;51.204;22.552;2023-02-23T15:02:11;18.00;;;6.45;;
42964;SDS011;28604;51.204;22.552;2023-02-23T15:04:42;10.93;;;7.05;;
42964;SDS011;28604;51.204;22.552;2023-02-23T15:07:13;17.08;;;7.18;;
42964;SDS011;28604;51.204;22.552;2023-02-23T15:09:49;14.18;;;7.38;;
42964;SDS011;28604;51.204;22.552;2023-02-23T15:12:18;13.82;;;7.50;;
42964;SDS011;28604;51.204;22.552;2023-02-23T15:14:47;14.25;;;6.97;;
42964;SDS011;28604;51.204;22.552;2023-02-23T15:17:15;15.07;;;7.57;;
42964;SDS011;28604;51.204;22.552;2023-02-23T15:19:55;18.55;;;8.68;;
42964;SDS011;28604;51.204;22.552;2023-02-23T15:24:51;14.10;;;8.45;;
42964;SDS011;28604;51.204;22.552;2023-02-23T15:27:22;17.25;;;9.30;;
42964;SDS011;28604;51.204;22.552;2023-02-23T15:29:53;17.83;;;9.07;;
42964;SDS011;28604;51.204;22.552;2023-02-23T15:32:21;17.90;;;9.65;;
42964;SDS011;28604;51.204;22.552;2023-02-23T15:34:49;16.20;;;8.75;;
42964;SDS011;28604;51.204;22.552;2023-02-23T15:37:24;15.68;;;8.90;;
42964;SDS011;28604;51.204;22.552;2023-02-23T15:39:55;18.38;;;9.90;;
42964;SDS011;28604;51.204;22.552;2023-02-23T15:42:34;22.80;;;10.77;;
42964;SDS011;28604;51.204;22.552;2023-02-23T15:45:27;19.90;;;10.82;;
42964;SDS011;28604;51.204;22.552;2023-02-23T15:47:59;25.33;;;11.45;;
42964;SDS011;28604;51.204;22.552;2023-02-23T15:50:31;28.60;;;11.40;;
42964;SDS011;28604;51.204;22.552;2023-02-23T15:53:01;26.60;;;11.70;;
42964;SDS011;28604;51.204;22.552;2023-02-23T15:55:36;26.17;;;12.38;;
42964;SDS011;28604;51.204;22.552;2023-02-23T15:58:12;29.17;;;13.88;;
42964;SDS011;28604;51.204;22.552;2023-02-23T16:00:59;29.40;;;12.82;;
42964;SDS011;28604;51.204;22.552;2023-02-23T16:03:33;27.30;;;12.93;;
42964;SDS011;28604;51.204;22.552;2023-02-23T16:06:20;26.00;;;12.70;;
42964;SDS011;28604;51.204;22.552;2023-02-23T16:08:58;30.95;;;13.55;;
42964;SDS011;28604;51.204;22.552;2023-02-23T16:11:31;36.40;;;14.75;;
42964;SDS011;28604;51.204;22.552;2023-02-23T16:14:00;28.67;;;13.10;;
42964;SDS011;28604;51.204;22.552;2023-02-23T16:16:27;31.33;;;13.98;;
42964;SDS011;28604;51.204;22.552;2023-02-23T16:18:54;33.80;;;13.95;;
42964;SDS011;28604;51.204;22.552;2023-02-23T16:21:27;32.22;;;13.27;;
42964;SDS011;28604;51.204;22.552;2023-02-23T16:23:55;22.27;;;12.05;;
42964;SDS011;28604;51.204;22.552;2023-02-23T16:26:27;21.00;;;12.32;;
42964;SDS011;28604;51.204;22.552;2023-02-23T16:28:58;20.25;;;10.40;;
42964;SDS011;28604;51.204;22.552;2023-02-23T16:31:43;22.55;;;11.30;;
42964;SDS011;28604;51.204;22.552;2023-02-23T16:37:03;23.35;;;11.00;;
42964;SDS011;28604;51.204;22.552;2023-02-23T16:39:39;19.25;;;10.48;;
42964;SDS011;28604;51.204;22.552;2023-02-23T16:42:06;17.38;;;10.13;;
42964;SDS011;28604;51.204;22.552;2023-02-23T16:44:56;19.70;;;10.38;;
42964;SDS011;28604;51.204;22.552;2023-02-23T16:49:49;23.85;;;12.65;;
42964;SDS011;28604;51.204;22.552;2023-02-23T16:52:17;20.98;;;13.10;;
42964;SDS011;28604;51.204;22.552;2023-02-23T16:54:44;23.40;;;13.23;;